sensor_id;sensor_type;location;lat;lon;timestamp;temperature;humidity
37956;DHT22;23776;51.592;7.180;2022-10-16T00:01:33;13.70;77.10
37956;DHT22;23776;51.592;7.180;2022-10-16T00:03:59;13.60;76.70
37956;DHT22;23776;51.592;7.180;2022-10-16T00:06:26;13.60;76.60
37956;DHT22;23776;51.592;7.180;2022-10-16T00:08:52;13.60;75.90
37956;DHT22;23776;51.592;7.180;2022-10-16T00:13:49;13.40;76.40
37956;DHT22;23776;51.592;7.180;2022-10-16T00:16:16;13.40;77.50
37956;DHT22;23776;51.592;7.180;2022-10-16T00:18:42;13.40;77.50
37956;DHT22;23776;51.592;7.180;2022-10-16T00:21:14;13.40;77.40
37956;DHT22;23776;51.592;7.180;2022-10-16T00:23:40;13.40;77.20
37956;DHT22;23776;51.592;7.180;2022-10-16T00:26:10;13.40;77.10
37956;DHT22;23776;51.592;7.180;2022-10-16T00:28:38;13.40;76.60
37956;DHT22;23776;51.592;7.180;2022-10-16T00:31:06;13.30;76.70
37956;DHT22;23776;51.592;7.180;2022-10-16T00:33:32;13.30;76.70
37956;DHT22;23776;51.592;7.180;2022-10-16T00:35:59;13.30;76.60
37956;DHT22;23776;51.592;7.180;2022-10-16T00:38:25;13.30;76.30
37956;DHT22;23776;51.592;7.180;2022-10-16T00:40:50;13.30;76.30
37956;DHT22;23776;51.592;7.180;2022-10-16T00:46:16;13.30;76.00
37956;DHT22;23776;51.592;7.180;2022-10-16T00:48:47;13.30;76.30
37956;DHT22;23776;51.592;7.180;2022-10-16T00:51:17;13.20;75.90
37956;DHT22;23776;51.592;7.180;2022-10-16T00:53:44;13.30;75.90
37956;DHT22;23776;51.592;7.180;2022-10-16T00:56:10;13.20;75.60
37956;DHT22;23776;51.592;7.180;2022-10-16T00:58:36;13.20;75.70
37956;DHT22;23776;51.592;7.180;2022-10-16T01:01:01;13.20;75.50
37956;DHT22;23776;51.592;7.180;2022-10-16T01:03:35;13.30;75.80
37956;DHT22;23776;51.592;7.180;2022-10-16T01:06:26;13.30;75.30
37956;DHT22;23776;51.592;7.180;2022-10-16T01:09:23;13.30;74.60
37956;DHT22;23776;51.592;7.180;2022-10-16T01:14:34;13.40;75.30
37956;DHT22;23776;51.592;7.180;2022-10-16T01:17:09;13.30;74.80
37956;DHT22;23776;51.592;7.180;2022-10-16T01:22:16;13.30;75.60
37956;DHT22;23776;51.592;7.180;2022-10-16T01:24:48;13.20;75.40
37956;DHT22;23776;51.592;7.180;2022-10-16T01:27:27;13.20;75.50
37956;DHT22;23776;51.592;7.180;2022-10-16T01:30:02;13.20;75.60
37956;DHT22;23776;51.592;7.180;2022-10-16T01:35:46;13.20;75.70
37956;DHT22;23776;51.592;7.180;2022-10-16T01:38:26;13.20;76.00
37956;DHT22;23776;51.592;7.180;2022-10-16T01:41:00;13.10;75.80
37956;DHT22;23776;51.592;7.180;2022-10-16T01:43:48;13.00;75.70
37956;DHT22;23776;51.592;7.180;2022-10-16T01:46:17;13.00;76.30
37956;DHT22;23776;51.592;7.180;2022-10-16T01:48:43;13.00;76.60
37956;DHT22;23776;51.592;7.180;2022-10-16T01:51:12;13.00;76.50
37956;DHT22;23776;51.592;7.180;2022-10-16T01:53:40;13.00;76.00
37956;DHT22;23776;51.592;7.180;2022-10-16T01:56:09;13.00;75.70
37956;DHT22;23776;51.592;7.180;2022-10-16T01:58:42;13.00;75.90
37956;DHT22;23776;51.592;7.180;2022-10-16T02:01:11;13.00;76.20
37956;DHT22;23776;51.592;7.180;2022-10-16T02:03:40;13.00;76.30
37956;DHT22;23776;51.592;7.180;2022-10-16T02:06:07;13.00;76.50
37956;DHT22;23776;51.592;7.180;2022-10-16T02:08:33;13.00;75.60
37956;DHT22;23776;51.592;7.180;2022-10-16T02:11:01;13.00;75.70
37956;DHT22;23776;51.592;7.180;2022-10-16T02:13:46;12.90;75.90
37956;DHT22;23776;51.592;7.180;2022-10-16T02:16:14;12.90;76.30
37956;DHT22;23776;51.592;7.180;2022-10-16T02:18:41;12.90;76.30
37956;DHT22;23776;51.592;7.180;2022-10-16T02:21:23;12.90;76.20
37956;DHT22;23776;51.592;7.180;2022-10-16T02:24:00;12.90;76.70
37956;DHT22;23776;51.592;7.180;2022-10-16T02:26:35;12.90;75.30
37956;DHT22;23776;51.592;7.180;2022-10-16T02:29:06;13.00;76.40
37956;DHT22;23776;51.592;7.180;2022-10-16T02:31:36;13.10;72.90
37956;DHT22;23776;51.592;7.180;2022-10-16T02:34:04;13.10;72.50
37956;DHT22;23776;51.592;7.180;2022-10-16T02:36:32;13.10;72.80
37956;DHT22;23776;51.592;7.180;2022-10-16T02:38:59;13.10;72.30
37956;DHT22;23776;51.592;7.180;2022-10-16T02:41:26;13.10;73.10
37956;DHT22;23776;51.592;7.180;2022-10-16T02:43:52;13.10;72.30
37956;DHT22;23776;51.592;7.180;2022-10-16T02:46:20;13.10;72.80
37956;DHT22;23776;51.592;7.180;2022-10-16T02:48:46;13.10;72.30
37956;DHT22;23776;51.592;7.180;2022-10-16T02:51:11;13.10;71.10
37956;DHT22;23776;51.592;7.180;2022-10-16T02:53:37;13.10;70.40
37956;DHT22;23776;51.592;7.180;2022-10-16T02:56:03;13.10;69.70
37956;DHT22;23776;51.592;7.180;2022-10-16T02:58:30;13.10;70.50
37956;DHT22;23776;51.592;7.180;2022-10-16T03:00:56;13.00;69.70
37956;DHT22;23776;51.592;7.180;2022-10-16T03:03:21;13.00;71.10
37956;DHT22;23776;51.592;7.180;2022-10-16T03:05:47;13.00;71.10
37956;DHT22;23776;51.592;7.180;2022-10-16T03:08:13;13.00;70.10
37956;DHT22;23776;51.592;7.180;2022-10-16T03:10:38;13.10;70.80
37956;DHT22;23776;51.592;7.180;2022-10-16T03:13:05;13.00;69.70
37956;DHT22;23776;51.592;7.180;2022-10-16T03:15:31;13.10;68.60
37956;DHT22;23776;51.592;7.180;2022-10-16T03:17:59;13.20;67.50
37956;DHT22;23776;51.592;7.180;2022-10-16T03:20:25;13.20;66.50
37956;DHT22;23776;51.592;7.180;2022-10-16T03:22:52;13.30;66.20
37956;DHT22;23776;51.592;7.180;2022-10-16T03:25:18;13.30;65.20
37956;DHT22;23776;51.592;7.180;2022-10-16T03:27:44;13.30;63.80
37956;DHT22;23776;51.592;7.180;2022-10-16T03:30:10;13.40;60.00
37956;DHT22;23776;51.592;7.180;2022-10-16T03:32:36;13.40;57.10
37956;DHT22;23776;51.592;7.180;2022-10-16T03:35:03;13.40;53.80
37956;DHT22;23776;51.592;7.180;2022-10-16T03:37:29;13.50;49.50
37956;DHT22;23776;51.592;7.180;2022-10-16T03:39:54;13.50;50.60
37956;DHT22;23776;51.592;7.180;2022-10-16T03:42:20;13.60;42.30
37956;DHT22;23776;51.592;7.180;2022-10-16T03:44:45;13.50;42.80
37956;DHT22;23776;51.592;7.180;2022-10-16T03:47:11;13.50;43.20
37956;DHT22;23776;51.592;7.180;2022-10-16T03:49:38;13.40;41.30
37956;DHT22;23776;51.592;7.180;2022-10-16T03:52:04;13.40;44.10
37956;DHT22;23776;51.592;7.180;2022-10-16T03:54:29;13.30;46.20
37956;DHT22;23776;51.592;7.180;2022-10-16T03:56:55;13.30;49.00
37956;DHT22;23776;51.592;7.180;2022-10-16T03:59:20;13.30;47.90
37956;DHT22;23776;51.592;7.180;2022-10-16T04:01:46;13.30;48.50
37956;DHT22;23776;51.592;7.180;2022-10-16T04:04:11;13.30;46.80
37956;DHT22;23776;51.592;7.180;2022-10-16T04:06:37;13.30;40.10
37956;DHT22;23776;51.592;7.180;2022-10-16T04:09:02;13.20;43.10
37956;DHT22;23776;51.592;7.180;2022-10-16T04:11:28;13.10;43.70
37956;DHT22;23776;51.592;7.180;2022-10-16T04:13:54;13.20;46.10
37956;DHT22;23776;51.592;7.180;2022-10-16T04:16:21;13.20;45.80
37956;DHT22;23776;51.592;7.180;2022-10-16T04:18:46;13.20;46.90
37956;DHT22;23776;51.592;7.180;2022-10-16T04:21:12;13.20;46.10
37956;DHT22;23776;51.592;7.180;2022-10-16T04:23:37;13.30;41.40
37956;DHT22;23776;51.592;7.180;2022-10-16T04:26:04;13.30;40.90
37956;DHT22;23776;51.592;7.180;2022-10-16T04:28:30;13.30;42.50
37956;DHT22;23776;51.592;7.180;2022-10-16T04:30:55;13.30;40.90
37956;DHT22;23776;51.592;7.180;2022-10-16T04:33:21;13.30;35.80
37956;DHT22;23776;51.592;7.180;2022-10-16T04:35:48;13.30;37.10
37956;DHT22;23776;51.592;7.180;2022-10-16T04:38:13;13.30;35.50
37956;DHT22;23776;51.592;7.180;2022-10-16T04:40:41;13.30;36.90
37956;DHT22;23776;51.592;7.180;2022-10-16T04:43:06;13.20;38.20
37956;DHT22;23776;51.592;7.180;2022-10-16T04:45:32;13.20;41.20
37956;DHT22;23776;51.592;7.180;2022-10-16T04:47:58;13.20;41.00
37956;DHT22;23776;51.592;7.180;2022-10-16T04:50:24;13.20;37.00
37956;DHT22;23776;51.592;7.180;2022-10-16T04:52:50;13.30;36.40
37956;DHT22;23776;51.592;7.180;2022-10-16T04:55:15;13.20;36.70
37956;DHT22;23776;51.592;7.180;2022-10-16T04:57:41;13.20;37.10
37956;DHT22;23776;51.592;7.180;2022-10-16T05:00:07;13.20;36.10
37956;DHT22;23776;51.592;7.180;2022-10-16T05:02:33;13.20;34.90
37956;DHT22;23776;51.592;7.180;2022-10-16T05:04:59;13.20;33.70
37956;DHT22;23776;51.592;7.180;2022-10-16T05:07:25;13.30;31.30
37956;DHT22;23776;51.592;7.180;2022-10-16T05:09:51;13.30;29.60
37956;DHT22;23776;51.592;7.180;2022-10-16T05:12:16;13.40;27.60
37956;DHT22;23776;51.592;7.180;2022-10-16T05:14:42;13.40;27.30
37956;DHT22;23776;51.592;7.180;2022-10-16T05:17:08;13.40;25.60
37956;DHT22;23776;51.592;7.180;2022-10-16T05:19:33;13.40;26.70
37956;DHT22;23776;51.592;7.180;2022-10-16T05:22:00;13.40;25.50
37956;DHT22;23776;51.592;7.180;2022-10-16T05:24:26;13.40;27.10
37956;DHT22;23776;51.592;7.180;2022-10-16T05:26:52;13.40;27.80
37956;DHT22;23776;51.592;7.180;2022-10-16T05:29:17;13.50;26.80
37956;DHT22;23776;51.592;7.180;2022-10-16T05:31:43;13.40;24.30
37956;DHT22;23776;51.592;7.180;2022-10-16T05:34:09;13.40;23.70
37956;DHT22;23776;51.592;7.180;2022-10-16T05:36:34;13.40;23.30
37956;DHT22;23776;51.592;7.180;2022-10-16T05:39:00;13.40;23.90
37956;DHT22;23776;51.592;7.180;2022-10-16T05:41:25;13.40;23.10
37956;DHT22;23776;51.592;7.180;2022-10-16T05:43:52;13.50;22.80
37956;DHT22;23776;51.592;7.180;2022-10-16T05:46:18;13.40;24.90
37956;DHT22;23776;51.592;7.180;2022-10-16T05:48:44;13.40;25.80
37956;DHT22;23776;51.592;7.180;2022-10-16T05:51:11;13.40;26.00
37956;DHT22;23776;51.592;7.180;2022-10-16T05:53:38;13.50;25.20
37956;DHT22;23776;51.592;7.180;2022-10-16T05:56:05;13.40;25.60
37956;DHT22;23776;51.592;7.180;2022-10-16T05:58:33;13.40;26.50
37956;DHT22;23776;51.592;7.180;2022-10-16T06:01:06;13.40;26.80
37956;DHT22;23776;51.592;7.180;2022-10-16T06:03:33;13.40;26.70
37956;DHT22;23776;51.592;7.180;2022-10-16T06:06:07;13.30;29.20
37956;DHT22;23776;51.592;7.180;2022-10-16T06:08:32;13.40;29.50
37956;DHT22;23776;51.592;7.180;2022-10-16T06:11:06;13.40;29.20
37956;DHT22;23776;51.592;7.180;2022-10-16T06:13:31;13.30;28.90
37956;DHT22;23776;51.592;7.180;2022-10-16T06:15:58;13.30;29.20
37956;DHT22;23776;51.592;7.180;2022-10-16T06:18:26;13.30;30.90
37956;DHT22;23776;51.592;7.180;2022-10-16T06:20:53;13.30;31.30
37956;DHT22;23776;51.592;7.180;2022-10-16T06:23:19;13.20;33.50
37956;DHT22;23776;51.592;7.180;2022-10-16T06:25:45;13.30;32.50
37956;DHT22;23776;51.592;7.180;2022-10-16T06:28:11;13.30;31.90
37956;DHT22;23776;51.592;7.180;2022-10-16T06:30:36;13.40;31.40
37956;DHT22;23776;51.592;7.180;2022-10-16T06:33:02;13.40;32.50
37956;DHT22;23776;51.592;7.180;2022-10-16T06:35:27;13.40;31.20
37956;DHT22;23776;51.592;7.180;2022-10-16T06:37:54;13.50;29.20
37956;DHT22;23776;51.592;7.180;2022-10-16T06:40:20;13.60;26.20
37956;DHT22;23776;51.592;7.180;2022-10-16T06:42:45;13.60;25.00
37956;DHT22;23776;51.592;7.180;2022-10-16T06:45:11;13.60;24.90
37956;DHT22;23776;51.592;7.180;2022-10-16T06:47:37;12.80;24.70
37956;DHT22;23776;51.592;7.180;2022-10-16T06:50:04;13.60;26.60
37956;DHT22;23776;51.592;7.180;2022-10-16T06:52:32;13.60;25.70
37956;DHT22;23776;51.592;7.180;2022-10-16T06:54:57;13.70;25.30
37956;DHT22;23776;51.592;7.180;2022-10-16T06:57:24;13.70;25.20
37956;DHT22;23776;51.592;7.180;2022-10-16T06:59:50;13.70;22.90
37956;DHT22;23776;51.592;7.180;2022-10-16T07:02:15;13.70;23.70
37956;DHT22;23776;51.592;7.180;2022-10-16T07:04:41;13.70;21.70
37956;DHT22;23776;51.592;7.180;2022-10-16T07:07:08;13.60;23.00
37956;DHT22;23776;51.592;7.180;2022-10-16T07:09:33;13.60;25.60
37956;DHT22;23776;51.592;7.180;2022-10-16T07:12:00;13.60;24.70
37956;DHT22;23776;51.592;7.180;2022-10-16T07:14:26;13.70;23.20
37956;DHT22;23776;51.592;7.180;2022-10-16T07:16:51;13.70;23.60
37956;DHT22;23776;51.592;7.180;2022-10-16T07:19:17;13.60;26.10
37956;DHT22;23776;51.592;7.180;2022-10-16T07:21:43;12.50;26.40
37956;DHT22;23776;51.592;7.180;2022-10-16T07:24:15;13.60;28.80
37956;DHT22;23776;51.592;7.180;2022-10-16T07:26:42;13.70;26.90
37956;DHT22;23776;51.592;7.180;2022-10-16T07:29:14;13.70;25.10
37956;DHT22;23776;51.592;7.180;2022-10-16T07:31:40;13.70;27.60
37956;DHT22;23776;51.592;7.180;2022-10-16T07:34:06;13.60;29.20
37956;DHT22;23776;51.592;7.180;2022-10-16T07:36:31;13.70;30.90
37956;DHT22;23776;51.592;7.180;2022-10-16T07:38:57;13.70;31.20
37956;DHT22;23776;51.592;7.180;2022-10-16T07:41:22;13.70;32.20
37956;DHT22;23776;51.592;7.180;2022-10-16T07:43:50;13.70;32.10
37956;DHT22;23776;51.592;7.180;2022-10-16T07:46:18;14.30;32.40
37956;DHT22;23776;51.592;7.180;2022-10-16T07:48:45;14.00;27.00
37956;DHT22;23776;51.592;7.180;2022-10-16T07:51:14;14.10;20.20
37956;DHT22;23776;51.592;7.180;2022-10-16T07:53:40;14.30;21.60
37956;DHT22;23776;51.592;7.180;2022-10-16T07:56:07;14.30;21.40
37956;DHT22;23776;51.592;7.180;2022-10-16T07:58:33;14.40;20.50
37956;DHT22;23776;51.592;7.180;2022-10-16T08:01:06;14.40;13.80
37956;DHT22;23776;51.592;7.180;2022-10-16T08:03:33;14.50;12.90
37956;DHT22;23776;51.592;7.180;2022-10-16T08:05:59;14.60;7.50
37956;DHT22;23776;51.592;7.180;2022-10-16T08:08:26;14.80;3.50
37956;DHT22;23776;51.592;7.180;2022-10-16T08:10:53;14.90;1.00
37956;DHT22;23776;51.592;7.180;2022-10-16T08:13:19;14.90;1.00
37956;DHT22;23776;51.592;7.180;2022-10-16T08:15:45;15.00;1.00
37956;DHT22;23776;51.592;7.180;2022-10-16T08:18:13;15.00;1.00
37956;DHT22;23776;51.592;7.180;2022-10-16T08:20:39;15.10;1.00
37956;DHT22;23776;51.592;7.180;2022-10-16T08:23:05;15.20;1.00
37956;DHT22;23776;51.592;7.180;2022-10-16T08:25:30;15.40;1.00
37956;DHT22;23776;51.592;7.180;2022-10-16T08:27:56;15.40;1.00
37956;DHT22;23776;51.592;7.180;2022-10-16T08:30:23;15.50;1.00
37956;DHT22;23776;51.592;7.180;2022-10-16T08:32:48;15.60;1.00
37956;DHT22;23776;51.592;7.180;2022-10-16T08:35:14;15.60;1.00
37956;DHT22;23776;51.592;7.180;2022-10-16T08:37:41;15.70;1.00
37956;DHT22;23776;51.592;7.180;2022-10-16T08:48:41;16.00;1.00
37956;DHT22;23776;51.592;7.180;2022-10-16T08:51:10;16.00;99.90
37956;DHT22;23776;51.592;7.180;2022-10-16T08:53:56;16.00;99.90
37956;DHT22;23776;51.592;7.180;2022-10-16T08:56:23;16.20;1.00
37956;DHT22;23776;51.592;7.180;2022-10-16T08:58:50;16.20;1.00
37956;DHT22;23776;51.592;7.180;2022-10-16T09:01:18;16.30;99.90
37956;DHT22;23776;51.592;7.180;2022-10-16T09:04:01;16.40;99.90
37956;DHT22;23776;51.592;7.180;2022-10-16T09:06:50;16.40;99.90
37956;DHT22;23776;51.592;7.180;2022-10-16T09:09:40;16.20;99.90
37956;DHT22;23776;51.592;7.180;2022-10-16T09:18:30;16.80;99.90
37956;DHT22;23776;51.592;7.180;2022-10-16T09:21:15;16.80;92.10
37956;DHT22;23776;51.592;7.180;2022-10-16T09:23:43;17.10;93.80
37956;DHT22;23776;51.592;7.180;2022-10-16T09:26:12;17.10;1.00
37956;DHT22;23776;51.592;7.180;2022-10-16T09:28:39;17.20;99.90
37956;DHT22;23776;51.592;7.180;2022-10-16T09:31:05;17.30;99.90
37956;DHT22;23776;51.592;7.180;2022-10-16T09:33:37;17.20;99.90
37956;DHT22;23776;51.592;7.180;2022-10-16T09:36:05;17.40;99.90
37956;DHT22;23776;51.592;7.180;2022-10-16T09:38:36;17.50;99.90
37956;DHT22;23776;51.592;7.180;2022-10-16T09:41:25;17.60;1.00
37956;DHT22;23776;51.592;7.180;2022-10-16T09:44:01;17.60;61.20
37956;DHT22;23776;51.592;7.180;2022-10-16T09:46:35;17.70;1.00
37956;DHT22;23776;51.592;7.180;2022-10-16T09:49:05;17.90;1.00
37956;DHT22;23776;51.592;7.180;2022-10-16T09:51:41;17.90;99.90
37956;DHT22;23776;51.592;7.180;2022-10-16T09:54:14;17.90;99.90
37956;DHT22;23776;51.592;7.180;2022-10-16T09:56:40;17.90;1.00
37956;DHT22;23776;51.592;7.180;2022-10-16T09:59:15;17.90;26.70
37956;DHT22;23776;51.592;7.180;2022-10-16T10:01:48;18.00;1.00
37956;DHT22;23776;51.592;7.180;2022-10-16T10:04:15;18.10;1.00
37956;DHT22;23776;51.592;7.180;2022-10-16T10:09:38;18.10;99.90
37956;DHT22;23776;51.592;7.180;2022-10-16T10:12:06;18.10;99.90
37956;DHT22;23776;51.592;7.180;2022-10-16T10:14:43;17.80;99.90
37956;DHT22;23776;51.592;7.180;2022-10-16T10:17:20;18.10;99.90
37956;DHT22;23776;51.592;7.180;2022-10-16T10:20:00;18.50;99.90
37956;DHT22;23776;51.592;7.180;2022-10-16T10:22:45;19.40;1.00
37956;DHT22;23776;51.592;7.180;2022-10-16T10:25:15;20.30;99.90
37956;DHT22;23776;51.592;7.180;2022-10-16T10:33:50;22.00;99.90
37956;DHT22;23776;51.592;7.180;2022-10-16T10:41:44;23.40;1.00
37956;DHT22;23776;51.592;7.180;2022-10-16T10:47:36;24.50;99.90
37956;DHT22;23776;51.592;7.180;2022-10-16T10:50:18;25.00;99.90
37956;DHT22;23776;51.592;7.180;2022-10-16T10:52:53;24.00;99.90
37956;DHT22;23776;51.592;7.180;2022-10-16T10:55:45;23.00;1.00
37956;DHT22;23776;51.592;7.180;2022-10-16T11:01:11;20.90;1.00
37956;DHT22;23776;51.592;7.180;2022-10-16T11:03:57;21.00;99.90
37956;DHT22;23776;51.592;7.180;2022-10-16T11:06:30;21.10;23.60
37956;DHT22;23776;51.592;7.180;2022-10-16T11:09:36;21.80;44.70
37956;DHT22;23776;51.592;7.180;2022-10-16T11:12:14;21.80;1.00
37956;DHT22;23776;51.592;7.180;2022-10-16T11:14:54;22.80;1.00
37956;DHT22;23776;51.592;7.180;2022-10-16T11:17:35;23.40;1.00
37956;DHT22;23776;51.592;7.180;2022-10-16T11:22:54;21.40;1.00
37956;DHT22;23776;51.592;7.180;2022-10-16T11:25:28;21.40;1.00
37956;DHT22;23776;51.592;7.180;2022-10-16T11:30:24;22.70;1.00
37956;DHT22;23776;51.592;7.180;2022-10-16T11:38:28;25.40;99.90
37956;DHT22;23776;51.592;7.180;2022-10-16T11:40:58;25.90;99.90
37956;DHT22;23776;51.592;7.180;2022-10-16T11:43:32;26.70;99.90
37956;DHT22;23776;51.592;7.180;2022-10-16T11:46:08;26.20;99.90
37956;DHT22;23776;51.592;7.180;2022-10-16T11:48:41;27.10;99.90
37956;DHT22;23776;51.592;7.180;2022-10-16T11:51:16;27.80;99.90
37956;DHT22;23776;51.592;7.180;2022-10-16T11:56:26;28.20;99.90
37956;DHT22;23776;51.592;7.180;2022-10-16T11:59:12;28.20;99.90
37956;DHT22;23776;51.592;7.180;2022-10-16T12:02:11;28.30;99.90
37956;DHT22;23776;51.592;7.180;2022-10-16T12:04:48;28.40;99.90
37956;DHT22;23776;51.592;7.180;2022-10-16T12:07:19;28.50;99.90
37956;DHT22;23776;51.592;7.180;2022-10-16T12:09:50;28.20;99.90
37956;DHT22;23776;51.592;7.180;2022-10-16T12:17:44;25.30;99.90
37956;DHT22;23776;51.592;7.180;2022-10-16T12:23:02;24.60;99.90
37956;DHT22;23776;51.592;7.180;2022-10-16T12:25:34;23.80;99.90
37956;DHT22;23776;51.592;7.180;2022-10-16T12:30:31;22.10;99.90
37956;DHT22;23776;51.592;7.180;2022-10-16T12:33:00;22.10;99.90
37956;DHT22;23776;51.592;7.180;2022-10-16T12:35:30;21.50;99.90
37956;DHT22;23776;51.592;7.180;2022-10-16T12:38:15;21.70;99.90
37956;DHT22;23776;51.592;7.180;2022-10-16T12:40:42;21.20;99.90
37956;DHT22;23776;51.592;7.180;2022-10-16T12:43:25;21.50;99.90
37956;DHT22;23776;51.592;7.180;2022-10-16T12:48:37;22.00;99.90
37956;DHT22;23776;51.592;7.180;2022-10-16T12:54:02;21.80;99.90
37956;DHT22;23776;51.592;7.180;2022-10-16T14:14:11;21.20;1.00
37956;DHT22;23776;51.592;7.180;2022-10-16T14:17:14;21.20;1.00
37956;DHT22;23776;51.592;7.180;2022-10-16T14:19:48;21.40;1.00
37956;DHT22;23776;51.592;7.180;2022-10-16T14:22:32;21.50;1.00
37956;DHT22;23776;51.592;7.180;2022-10-16T14:25:25;21.50;1.00
37956;DHT22;23776;51.592;7.180;2022-10-16T14:28:19;21.40;99.90
37956;DHT22;23776;51.592;7.180;2022-10-16T14:30:57;21.30;1.00
37956;DHT22;23776;51.592;7.180;2022-10-16T14:36:05;20.80;1.00
37956;DHT22;23776;51.592;7.180;2022-10-16T14:38:32;20.70;1.00
37956;DHT22;23776;51.592;7.180;2022-10-16T14:40:59;20.70;1.00
37956;DHT22;23776;51.592;7.180;2022-10-16T14:43:36;20.70;1.00
37956;DHT22;23776;51.592;7.180;2022-10-16T14:46:28;20.60;1.00
37956;DHT22;23776;51.592;7.180;2022-10-16T14:49:03;20.50;56.80
37956;DHT22;23776;51.592;7.180;2022-10-16T14:51:30;20.50;34.60
37956;DHT22;23776;51.592;7.180;2022-10-16T14:53:56;20.40;76.40
37956;DHT22;23776;51.592;7.180;2022-10-16T14:56:24;20.20;99.90
37956;DHT22;23776;51.592;7.180;2022-10-16T14:58:50;20.30;99.90
37956;DHT22;23776;51.592;7.180;2022-10-16T15:01:18;20.40;99.90
37956;DHT22;23776;51.592;7.180;2022-10-16T15:03:45;20.50;99.90
37956;DHT22;23776;51.592;7.180;2022-10-16T15:06:12;20.60;99.90
37956;DHT22;23776;51.592;7.180;2022-10-16T15:08:38;20.60;99.90
37956;DHT22;23776;51.592;7.180;2022-10-16T15:11:04;20.50;99.50
37956;DHT22;23776;51.592;7.180;2022-10-16T15:13:30;20.40;89.10
37956;DHT22;23776;51.592;7.180;2022-10-16T15:15:56;20.30;99.90
37956;DHT22;23776;51.592;7.180;2022-10-16T15:18:22;20.30;99.90
37956;DHT22;23776;51.592;7.180;2022-10-16T15:20:51;20.20;99.90
37956;DHT22;23776;51.592;7.180;2022-10-16T15:23:19;20.00;99.90
37956;DHT22;23776;51.592;7.180;2022-10-16T15:25:51;19.90;99.90
37956;DHT22;23776;51.592;7.180;2022-10-16T15:28:18;19.90;99.90
37956;DHT22;23776;51.592;7.180;2022-10-16T15:30:44;19.80;1.00
37956;DHT22;23776;51.592;7.180;2022-10-16T15:33:22;19.80;99.90
37956;DHT22;23776;51.592;7.180;2022-10-16T15:35:50;19.70;1.00
37956;DHT22;23776;51.592;7.180;2022-10-16T15:38:16;19.60;99.90
37956;DHT22;23776;51.592;7.180;2022-10-16T15:40:42;19.50;99.90
37956;DHT22;23776;51.592;7.180;2022-10-16T15:43:08;19.50;1.00
37956;DHT22;23776;51.592;7.180;2022-10-16T15:45:34;19.40;99.90
37956;DHT22;23776;51.592;7.180;2022-10-16T15:48:00;19.40;99.90
37956;DHT22;23776;51.592;7.180;2022-10-16T15:50:26;19.30;99.90
37956;DHT22;23776;51.592;7.180;2022-10-16T15:52:52;19.20;99.90
37956;DHT22;23776;51.592;7.180;2022-10-16T15:55:17;19.20;1.00
37956;DHT22;23776;51.592;7.180;2022-10-16T15:57:44;19.20;1.00
37956;DHT22;23776;51.592;7.180;2022-10-16T16:00:13;19.10;99.90
37956;DHT22;23776;51.592;7.180;2022-10-16T16:02:42;19.00;99.90
37956;DHT22;23776;51.592;7.180;2022-10-16T16:05:09;18.90;1.00
37956;DHT22;23776;51.592;7.180;2022-10-16T16:07:37;18.90;1.00
37956;DHT22;23776;51.592;7.180;2022-10-16T16:10:04;18.80;99.90
37956;DHT22;23776;51.592;7.180;2022-10-16T16:12:30;18.60;99.90
37956;DHT22;23776;51.592;7.180;2022-10-16T16:14:56;18.50;99.90
37956;DHT22;23776;51.592;7.180;2022-10-16T16:17:21;18.40;1.00
37956;DHT22;23776;51.592;7.180;2022-10-16T16:19:47;18.30;1.00
37956;DHT22;23776;51.592;7.180;2022-10-16T16:22:13;18.30;1.00
37956;DHT22;23776;51.592;7.180;2022-10-16T16:24:39;18.20;99.90
37956;DHT22;23776;51.592;7.180;2022-10-16T16:27:04;18.10;99.90
37956;DHT22;23776;51.592;7.180;2022-10-16T16:29:30;18.00;99.90
37956;DHT22;23776;51.592;7.180;2022-10-16T16:31:56;17.90;99.90
37956;DHT22;23776;51.592;7.180;2022-10-16T16:34:27;17.90;1.00
37956;DHT22;23776;51.592;7.180;2022-10-16T16:36:53;17.80;90.00
37956;DHT22;23776;51.592;7.180;2022-10-16T16:39:19;17.80;97.50
37956;DHT22;23776;51.592;7.180;2022-10-16T16:41:45;17.70;99.90
37956;DHT22;23776;51.592;7.180;2022-10-16T16:44:12;17.60;99.90
37956;DHT22;23776;51.592;7.180;2022-10-16T16:46:38;17.50;99.90
37956;DHT22;23776;51.592;7.180;2022-10-16T16:49:06;17.50;99.90
37956;DHT22;23776;51.592;7.180;2022-10-16T16:51:34;17.40;99.90
37956;DHT22;23776;51.592;7.180;2022-10-16T16:54:00;17.40;99.90
37956;DHT22;23776;51.592;7.180;2022-10-16T16:56:27;17.30;99.90
37956;DHT22;23776;51.592;7.180;2022-10-16T16:58:55;17.20;99.90
37956;DHT22;23776;51.592;7.180;2022-10-16T17:01:24;17.20;99.90
37956;DHT22;23776;51.592;7.180;2022-10-16T17:03:54;17.10;99.90
37956;DHT22;23776;51.592;7.180;2022-10-16T17:06:21;17.00;1.00
37956;DHT22;23776;51.592;7.180;2022-10-16T17:08:48;17.00;1.00
37956;DHT22;23776;51.592;7.180;2022-10-16T17:11:20;16.90;1.00
37956;DHT22;23776;51.592;7.180;2022-10-16T17:13:46;16.80;1.00
37956;DHT22;23776;51.592;7.180;2022-10-16T17:16:11;16.70;1.00
37956;DHT22;23776;51.592;7.180;2022-10-16T17:18:37;16.70;1.00
37956;DHT22;23776;51.592;7.180;2022-10-16T17:21:06;16.60;1.00
37956;DHT22;23776;51.592;7.180;2022-10-16T17:23:34;16.60;1.00
37956;DHT22;23776;51.592;7.180;2022-10-16T17:26:14;16.60;1.00
37956;DHT22;23776;51.592;7.180;2022-10-16T17:28:41;16.70;1.00
37956;DHT22;23776;51.592;7.180;2022-10-16T17:31:16;16.70;1.00
37956;DHT22;23776;51.592;7.180;2022-10-16T17:33:43;16.80;1.00
37956;DHT22;23776;51.592;7.180;2022-10-16T17:36:10;16.70;1.00
37956;DHT22;23776;51.592;7.180;2022-10-16T17:38:36;16.70;1.00
37956;DHT22;23776;51.592;7.180;2022-10-16T17:41:16;16.70;1.00
37956;DHT22;23776;51.592;7.180;2022-10-16T17:43:42;16.60;1.00
37956;DHT22;23776;51.592;7.180;2022-10-16T17:46:09;16.50;1.00
37956;DHT22;23776;51.592;7.180;2022-10-16T17:48:39;16.50;1.00
37956;DHT22;23776;51.592;7.180;2022-10-16T17:51:11;16.50;1.00
37956;DHT22;23776;51.592;7.180;2022-10-16T17:53:37;16.50;1.00
37956;DHT22;23776;51.592;7.180;2022-10-16T17:56:08;16.50;1.00
37956;DHT22;23776;51.592;7.180;2022-10-16T17:58:34;16.50;1.00
37956;DHT22;23776;51.592;7.180;2022-10-16T18:00:59;16.50;1.00
37956;DHT22;23776;51.592;7.180;2022-10-16T18:03:26;16.50;1.00
37956;DHT22;23776;51.592;7.180;2022-10-16T18:05:53;16.60;1.00
37956;DHT22;23776;51.592;7.180;2022-10-16T18:08:20;16.60;1.00
37956;DHT22;23776;51.592;7.180;2022-10-16T18:10:47;16.60;1.00
37956;DHT22;23776;51.592;7.180;2022-10-16T18:13:14;16.00;1.00
37956;DHT22;23776;51.592;7.180;2022-10-16T18:15:40;16.60;1.00
37956;DHT22;23776;51.592;7.180;2022-10-16T18:18:05;16.50;1.00
37956;DHT22;23776;51.592;7.180;2022-10-16T18:20:31;16.50;1.00
37956;DHT22;23776;51.592;7.180;2022-10-16T18:22:58;16.50;1.00
37956;DHT22;23776;51.592;7.180;2022-10-16T18:25:24;16.50;1.00
37956;DHT22;23776;51.592;7.180;2022-10-16T18:27:49;16.40;1.00